sensor_id;sensor_type;location;lat;lon;timestamp;temperature;humidity
53643;DHT22;39546;45.534;12.048;2023-12-20T00:03:05;6.30;81.00
53643;DHT22;39546;45.534;12.048;2023-12-20T00:09:06;6.30;81.00
53643;DHT22;39546;45.534;12.048;2023-12-20T00:15:14;6.40;80.80
53643;DHT22;39546;45.534;12.048;2023-12-20T00:21:16;6.40;80.60
53643;DHT22;39546;45.534;12.048;2023-12-20T00:27:17;6.40;80.60
53643;DHT22;39546;45.534;12.048;2023-12-20T00:33:19;6.40;80.50
53643;DHT22;39546;45.534;12.048;2023-12-20T00:39:20;6.20;80.60
53643;DHT22;39546;45.534;12.048;2023-12-20T00:45:22;6.20;80.70
53643;DHT22;39546;45.534;12.048;2023-12-20T00:51:23;6.10;80.70
53643;DHT22;39546;45.534;12.048;2023-12-20T00:57:25;6.10;80.70
53643;DHT22;39546;45.534;12.048;2023-12-20T01:03:27;6.00;80.70
53643;DHT22;39546;45.534;12.048;2023-12-20T01:09:28;5.90;80.70
53643;DHT22;39546;45.534;12.048;2023-12-20T01:15:30;6.00;80.60
53643;DHT22;39546;45.534;12.048;2023-12-20T01:21:32;6.00;80.50
53643;DHT22;39546;45.534;12.048;2023-12-20T01:27:33;6.00;80.40
53643;DHT22;39546;45.534;12.048;2023-12-20T01:33:35;5.90;80.60
53643;DHT22;39546;45.534;12.048;2023-12-20T01:39:36;5.80;80.60
53643;DHT22;39546;45.534;12.048;2023-12-20T01:45:38;5.70;80.70
53643;DHT22;39546;45.534;12.048;2023-12-20T01:51:39;5.70;80.70
53643;DHT22;39546;45.534;12.048;2023-12-20T01:57:42;5.70;80.70
53643;DHT22;39546;45.534;12.048;2023-12-20T02:03:44;5.70;80.60
53643;DHT22;39546;45.534;12.048;2023-12-20T02:09:46;5.60;80.50
53643;DHT22;39546;45.534;12.048;2023-12-20T02:15:48;5.60;80.50
53643;DHT22;39546;45.534;12.048;2023-12-20T02:21:49;5.60;80.40
53643;DHT22;39546;45.534;12.048;2023-12-20T02:27:52;5.60;80.40
53643;DHT22;39546;45.534;12.048;2023-12-20T02:33:53;5.50;80.40
53643;DHT22;39546;45.534;12.048;2023-12-20T02:39:55;5.50;80.40
53643;DHT22;39546;45.534;12.048;2023-12-20T02:45:56;5.50;80.50
53643;DHT22;39546;45.534;12.048;2023-12-20T02:51:58;5.70;81.00
53643;DHT22;39546;45.534;12.048;2023-12-20T02:57:59;5.60;80.70
53643;DHT22;39546;45.534;12.048;2023-12-20T03:04:01;5.50;80.60
53643;DHT22;39546;45.534;12.048;2023-12-20T03:10:03;5.40;80.60
53643;DHT22;39546;45.534;12.048;2023-12-20T03:16:09;5.40;80.60
53643;DHT22;39546;45.534;12.048;2023-12-20T03:22:11;5.40;80.50
53643;DHT22;39546;45.534;12.048;2023-12-20T03:28:15;5.40;80.70
53643;DHT22;39546;45.534;12.048;2023-12-20T03:34:17;5.20;80.60
53643;DHT22;39546;45.534;12.048;2023-12-20T03:40:18;5.00;81.20
53643;DHT22;39546;45.534;12.048;2023-12-20T03:46:20;4.90;81.40
53643;DHT22;39546;45.534;12.048;2023-12-20T03:52:21;5.00;81.10
53643;DHT22;39546;45.534;12.048;2023-12-20T03:58:23;5.00;80.90
53643;DHT22;39546;45.534;12.048;2023-12-20T04:04:24;5.10;80.90
53643;DHT22;39546;45.534;12.048;2023-12-20T04:10:26;5.20;80.70
53643;DHT22;39546;45.534;12.048;2023-12-20T04:16:28;5.20;80.60
53643;DHT22;39546;45.534;12.048;2023-12-20T04:22:29;5.30;80.80
53643;DHT22;39546;45.534;12.048;2023-12-20T04:28:31;5.40;80.70
53643;DHT22;39546;45.534;12.048;2023-12-20T04:34:32;5.50;80.40
53643;DHT22;39546;45.534;12.048;2023-12-20T04:40:34;5.40;80.20
53643;DHT22;39546;45.534;12.048;2023-12-20T04:46:35;5.20;80.60
53643;DHT22;39546;45.534;12.048;2023-12-20T04:52:37;5.50;80.60
53643;DHT22;39546;45.534;12.048;2023-12-20T04:58:39;5.70;80.60
53643;DHT22;39546;45.534;12.048;2023-12-20T05:04:40;5.80;80.30
53643;DHT22;39546;45.534;12.048;2023-12-20T05:10:42;5.70;80.00
53643;DHT22;39546;45.534;12.048;2023-12-20T05:16:44;5.40;80.90
53643;DHT22;39546;45.534;12.048;2023-12-20T05:22:46;5.70;80.90
53643;DHT22;39546;45.534;12.048;2023-12-20T05:28:48;5.90;80.50
53643;DHT22;39546;45.534;12.048;2023-12-20T05:34:50;5.90;80.20
53643;DHT22;39546;45.534;12.048;2023-12-20T05:40:51;5.90;80.30
53643;DHT22;39546;45.534;12.048;2023-12-20T05:46:53;5.90;80.20
53643;DHT22;39546;45.534;12.048;2023-12-20T05:52:54;6.10;80.30
53643;DHT22;39546;45.534;12.048;2023-12-20T05:58:56;6.20;80.00
53643;DHT22;39546;45.534;12.048;2023-12-20T06:04:58;6.20;79.80
53643;DHT22;39546;45.534;12.048;2023-12-20T06:10:59;6.40;79.90
53643;DHT22;39546;45.534;12.048;2023-12-20T06:17:01;6.60;80.70
53643;DHT22;39546;45.534;12.048;2023-12-20T06:23:03;6.60;80.30
53643;DHT22;39546;45.534;12.048;2023-12-20T06:29:04;6.70;80.80
53643;DHT22;39546;45.534;12.048;2023-12-20T06:35:06;6.70;80.40
53643;DHT22;39546;45.534;12.048;2023-12-20T06:41:08;6.60;80.40
53643;DHT22;39546;45.534;12.048;2023-12-20T06:47:11;6.70;80.50
53643;DHT22;39546;45.534;12.048;2023-12-20T06:53:17;6.80;80.10
53643;DHT22;39546;45.534;12.048;2023-12-20T06:59:19;6.80;79.90
53643;DHT22;39546;45.534;12.048;2023-12-20T07:05:22;6.70;80.00
53643;DHT22;39546;45.534;12.048;2023-12-20T07:11:24;6.80;80.00
53643;DHT22;39546;45.534;12.048;2023-12-20T07:17:26;6.80;79.90
53643;DHT22;39546;45.534;12.048;2023-12-20T07:23:49;6.90;79.90
53643;DHT22;39546;45.534;12.048;2023-12-20T07:29:54;6.90;79.80
53643;DHT22;39546;45.534;12.048;2023-12-20T07:35:55;7.20;80.20
53643;DHT22;39546;45.534;12.048;2023-12-20T07:41:57;7.20;80.10
53643;DHT22;39546;45.534;12.048;2023-12-20T07:47:59;7.10;80.50
53643;DHT22;39546;45.534;12.048;2023-12-20T07:54:00;7.20;80.60
53643;DHT22;39546;45.534;12.048;2023-12-20T08:00:02;7.20;80.50
53643;DHT22;39546;45.534;12.048;2023-12-20T08:06:05;7.30;80.70
53643;DHT22;39546;45.534;12.048;2023-12-20T08:12:09;7.40;80.90
53643;DHT22;39546;45.534;12.048;2023-12-20T08:18:10;7.40;80.70
53643;DHT22;39546;45.534;12.048;2023-12-20T08:24:12;7.40;80.90
53643;DHT22;39546;45.534;12.048;2023-12-20T08:30:14;7.40;80.90
53643;DHT22;39546;45.534;12.048;2023-12-20T08:36:16;7.50;81.00
53643;DHT22;39546;45.534;12.048;2023-12-20T08:42:20;7.70;81.10
53643;DHT22;39546;45.534;12.048;2023-12-20T08:48:21;7.80;82.30
53643;DHT22;39546;45.534;12.048;2023-12-20T08:54:23;7.90;83.10
53643;DHT22;39546;45.534;12.048;2023-12-20T09:00:25;7.90;83.50
53643;DHT22;39546;45.534;12.048;2023-12-20T09:06:29;7.90;83.50
53643;DHT22;39546;45.534;12.048;2023-12-20T09:12:32;7.60;83.40
53643;DHT22;39546;45.534;12.048;2023-12-20T09:18:34;7.60;83.70
53643;DHT22;39546;45.534;12.048;2023-12-20T09:24:36;7.50;83.60
53643;DHT22;39546;45.534;12.048;2023-12-20T09:30:37;7.60;84.00
53643;DHT22;39546;45.534;12.048;2023-12-20T09:36:42;7.80;83.60
53643;DHT22;39546;45.534;12.048;2023-12-20T09:42:57;7.90;83.70
53643;DHT22;39546;45.534;12.048;2023-12-20T09:49:00;7.80;83.60
53643;DHT22;39546;45.534;12.048;2023-12-20T09:55:04;7.70;84.00
53643;DHT22;39546;45.534;12.048;2023-12-20T10:01:11;7.50;84.20
53643;DHT22;39546;45.534;12.048;2023-12-20T10:07:13;7.50;84.80
53643;DHT22;39546;45.534;12.048;2023-12-20T10:13:15;7.70;84.90
53643;DHT22;39546;45.534;12.048;2023-12-20T10:19:17;8.00;85.00
53643;DHT22;39546;45.534;12.048;2023-12-20T10:25:21;8.20;84.90
53643;DHT22;39546;45.534;12.048;2023-12-20T10:31:33;8.30;85.00
53643;DHT22;39546;45.534;12.048;2023-12-20T10:37:39;8.30;85.00
53643;DHT22;39546;45.534;12.048;2023-12-20T10:43:59;8.50;84.90
53643;DHT22;39546;45.534;12.048;2023-12-20T10:50:02;8.60;84.90
53643;DHT22;39546;45.534;12.048;2023-12-20T10:56:08;8.70;85.00
53643;DHT22;39546;45.534;12.048;2023-12-20T11:02:12;8.80;85.00
53643;DHT22;39546;45.534;12.048;2023-12-20T11:08:22;8.80;85.40
53643;DHT22;39546;45.534;12.048;2023-12-20T11:20:44;9.00;85.80
53643;DHT22;39546;45.534;12.048;2023-12-20T11:26:49;9.20;86.00
53643;DHT22;39546;45.534;12.048;2023-12-20T11:32:51;9.20;86.20
53643;DHT22;39546;45.534;12.048;2023-12-20T11:38:57;9.20;86.00
53643;DHT22;39546;45.534;12.048;2023-12-20T11:45:01;9.20;86.30
53643;DHT22;39546;45.534;12.048;2023-12-20T11:51:11;9.30;86.40
53643;DHT22;39546;45.534;12.048;2023-12-20T11:57:16;9.40;86.40
53643;DHT22;39546;45.534;12.048;2023-12-20T12:03:18;9.50;86.20
53643;DHT22;39546;45.534;12.048;2023-12-20T12:09:20;9.60;86.30
53643;DHT22;39546;45.534;12.048;2023-12-20T12:15:22;9.50;86.30
53643;DHT22;39546;45.534;12.048;2023-12-20T12:21:24;9.60;86.30
53643;DHT22;39546;45.534;12.048;2023-12-20T12:27:27;9.50;86.50
53643;DHT22;39546;45.534;12.048;2023-12-20T12:33:29;9.50;86.50
53643;DHT22;39546;45.534;12.048;2023-12-20T12:39:31;9.60;86.30
53643;DHT22;39546;45.534;12.048;2023-12-20T12:45:33;9.70;86.30
53643;DHT22;39546;45.534;12.048;2023-12-20T12:51:34;9.70;86.50
53643;DHT22;39546;45.534;12.048;2023-12-20T12:57:39;9.60;86.40
53643;DHT22;39546;45.534;12.048;2023-12-20T13:03:48;9.40;86.40
53643;DHT22;39546;45.534;12.048;2023-12-20T13:09:50;9.40;86.50
53643;DHT22;39546;45.534;12.048;2023-12-20T13:15:54;9.20;86.80
53643;DHT22;39546;45.534;12.048;2023-12-20T13:21:58;9.30;86.90
53643;DHT22;39546;45.534;12.048;2023-12-20T13:27:59;9.40;86.60
53643;DHT22;39546;45.534;12.048;2023-12-20T13:34:01;9.20;86.40
53643;DHT22;39546;45.534;12.048;2023-12-20T13:40:03;8.80;86.60
53643;DHT22;39546;45.534;12.048;2023-12-20T13:46:05;8.60;87.00
53643;DHT22;39546;45.534;12.048;2023-12-20T13:52:07;8.80;87.60
53643;DHT22;39546;45.534;12.048;2023-12-20T13:58:09;9.20;87.20
53643;DHT22;39546;45.534;12.048;2023-12-20T14:04:13;9.50;86.80
53643;DHT22;39546;45.534;12.048;2023-12-20T14:10:16;9.70;86.40
53643;DHT22;39546;45.534;12.048;2023-12-20T14:16:18;9.80;86.40
53643;DHT22;39546;45.534;12.048;2023-12-20T14:22:20;9.80;86.40
53643;DHT22;39546;45.534;12.048;2023-12-20T14:28:21;9.80;86.60
53643;DHT22;39546;45.534;12.048;2023-12-20T14:34:23;9.90;86.50
53643;DHT22;39546;45.534;12.048;2023-12-20T14:40:35;9.90;86.30
53643;DHT22;39546;45.534;12.048;2023-12-20T14:46:37;9.90;86.20
53643;DHT22;39546;45.534;12.048;2023-12-20T14:52:39;9.70;86.60
53643;DHT22;39546;45.534;12.048;2023-12-20T14:58:40;9.80;86.40
53643;DHT22;39546;45.534;12.048;2023-12-20T15:04:42;9.60;86.60
53643;DHT22;39546;45.534;12.048;2023-12-20T15:10:44;9.40;86.50
53643;DHT22;39546;45.534;12.048;2023-12-20T15:16:46;9.50;87.00
53643;DHT22;39546;45.534;12.048;2023-12-20T15:22:50;9.80;86.50
53643;DHT22;39546;45.534;12.048;2023-12-20T15:28:52;9.50;86.20
53643;DHT22;39546;45.534;12.048;2023-12-20T15:34:53;9.30;86.80
53643;DHT22;39546;45.534;12.048;2023-12-20T15:40:56;9.50;86.50
53643;DHT22;39546;45.534;12.048;2023-12-20T15:46:57;9.70;86.20
53643;DHT22;39546;45.534;12.048;2023-12-20T15:52:59;9.80;85.80
53643;DHT22;39546;45.534;12.048;2023-12-20T15:59:01;9.80;85.30
53643;DHT22;39546;45.534;12.048;2023-12-20T16:05:03;9.70;85.00
53643;DHT22;39546;45.534;12.048;2023-12-20T16:11:05;9.60;84.70
53643;DHT22;39546;45.534;12.048;2023-12-20T16:17:06;9.60;84.90
53643;DHT22;39546;45.534;12.048;2023-12-20T16:23:08;9.60;84.60
53643;DHT22;39546;45.534;12.048;2023-12-20T16:29:11;9.60;84.40
53643;DHT22;39546;45.534;12.048;2023-12-20T16:35:14;9.50;84.50
53643;DHT22;39546;45.534;12.048;2023-12-20T16:41:15;9.50;84.50
53643;DHT22;39546;45.534;12.048;2023-12-20T16:47:24;9.40;84.40
53643;DHT22;39546;45.534;12.048;2023-12-20T16:53:25;9.20;84.30
53643;DHT22;39546;45.534;12.048;2023-12-20T16:59:27;9.20;84.60
53643;DHT22;39546;45.534;12.048;2023-12-20T17:05:57;9.30;84.40
53643;DHT22;39546;45.534;12.048;2023-12-20T17:11:59;9.40;84.20
53643;DHT22;39546;45.534;12.048;2023-12-20T17:18:01;9.30;84.20
53643;DHT22;39546;45.534;12.048;2023-12-20T17:24:04;9.40;84.10
53643;DHT22;39546;45.534;12.048;2023-12-20T17:30:06;9.30;84.30
53643;DHT22;39546;45.534;12.048;2023-12-20T17:36:08;9.30;84.30
53643;DHT22;39546;45.534;12.048;2023-12-20T17:42:12;9.30;84.30
53643;DHT22;39546;45.534;12.048;2023-12-20T17:48:14;9.40;84.30
53643;DHT22;39546;45.534;12.048;2023-12-20T17:54:16;9.30;84.20
53643;DHT22;39546;45.534;12.048;2023-12-20T18:00:20;9.20;83.90
53643;DHT22;39546;45.534;12.048;2023-12-20T18:06:22;9.00;84.30
53643;DHT22;39546;45.534;12.048;2023-12-20T18:12:25;8.80;84.50
53643;DHT22;39546;45.534;12.048;2023-12-20T18:18:26;8.90;84.50
53643;DHT22;39546;45.534;12.048;2023-12-20T18:24:28;8.80;84.10
53643;DHT22;39546;45.534;12.048;2023-12-20T18:30:30;8.50;84.50
53643;DHT22;39546;45.534;12.048;2023-12-20T18:36:31;8.50;84.70
53643;DHT22;39546;45.534;12.048;2023-12-20T18:42:33;8.60;84.50
53643;DHT22;39546;45.534;12.048;2023-12-20T18:48:35;8.70;84.10
53643;DHT22;39546;45.534;12.048;2023-12-20T18:54:37;8.70;84.00
53643;DHT22;39546;45.534;12.048;2023-12-20T19:00:39;8.80;83.80
53643;DHT22;39546;45.534;12.048;2023-12-20T19:06:40;8.70;83.50
53643;DHT22;39546;45.534;12.048;2023-12-20T19:12:42;8.40;83.70
53643;DHT22;39546;45.534;12.048;2023-12-20T19:18:44;8.40;83.70
53643;DHT22;39546;45.534;12.048;2023-12-20T19:24:47;8.40;83.50
53643;DHT22;39546;45.534;12.048;2023-12-20T19:30:49;8.50;83.50
53643;DHT22;39546;45.534;12.048;2023-12-20T19:36:50;8.30;83.80
53643;DHT22;39546;45.534;12.048;2023-12-20T19:42:52;7.90;84.50
53643;DHT22;39546;45.534;12.048;2023-12-20T19:48:54;8.00;85.40
53643;DHT22;39546;45.534;12.048;2023-12-20T19:54:56;8.00;84.70
53643;DHT22;39546;45.534;12.048;2023-12-20T20:00:59;7.60;84.80
53643;DHT22;39546;45.534;12.048;2023-12-20T20:07:01;7.50;85.30
53643;DHT22;39546;45.534;12.048;2023-12-20T20:13:03;7.70;85.00
53643;DHT22;39546;45.534;12.048;2023-12-20T20:19:05;7.90;84.60
53643;DHT22;39546;45.534;12.048;2023-12-20T20:25:07;8.00;84.20
53643;DHT22;39546;45.534;12.048;2023-12-20T20:31:09;7.70;84.10
53643;DHT22;39546;45.534;12.048;2023-12-20T20:37:11;7.40;84.60
53643;DHT22;39546;45.534;12.048;2023-12-20T20:43:13;7.50;84.80
53643;DHT22;39546;45.534;12.048;2023-12-20T20:49:14;7.60;84.50
53643;DHT22;39546;45.534;12.048;2023-12-20T20:55:17;7.70;84.30
53643;DHT22;39546;45.534;12.048;2023-12-20T21:01:19;7.70;84.00
53643;DHT22;39546;45.534;12.048;2023-12-20T21:07:21;7.60;84.00
53643;DHT22;39546;45.534;12.048;2023-12-20T21:13:23;7.40;84.10
53643;DHT22;39546;45.534;12.048;2023-12-20T21:19:24;7.00;84.40
53643;DHT22;39546;45.534;12.048;2023-12-20T21:25:26;6.80;84.70
53643;DHT22;39546;45.534;12.048;2023-12-20T21:31:28;7.10;85.00
53643;DHT22;39546;45.534;12.048;2023-12-20T21:37:30;7.20;84.60
53643;DHT22;39546;45.534;12.048;2023-12-20T21:43:32;6.90;84.70
53643;DHT22;39546;45.534;12.048;2023-12-20T21:49:34;7.10;85.00
53643;DHT22;39546;45.534;12.048;2023-12-20T21:55:36;7.50;84.90
53643;DHT22;39546;45.534;12.048;2023-12-20T22:01:41;7.60;84.40
53643;DHT22;39546;45.534;12.048;2023-12-20T22:07:45;7.50;84.20
53643;DHT22;39546;45.534;12.048;2023-12-20T22:13:47;7.30;84.50
53643;DHT22;39546;45.534;12.048;2023-12-20T22:19:49;7.30;84.30
53643;DHT22;39546;45.534;12.048;2023-12-20T22:25:50;7.20;84.60
53643;DHT22;39546;45.534;12.048;2023-12-20T22:31:52;7.20;84.30
53643;DHT22;39546;45.534;12.048;2023-12-20T22:37:54;7.20;84.40
53643;DHT22;39546;45.534;12.048;2023-12-20T22:43:55;7.20;84.50
53643;DHT22;39546;45.534;12.048;2023-12-20T22:49:57;7.20;84.30
53643;DHT22;39546;45.534;12.048;2023-12-20T22:55:59;7.20;84.10
53643;DHT22;39546;45.534;12.048;2023-12-20T23:02:00;7.10;84.10
53643;DHT22;39546;45.534;12.048;2023-12-20T23:08:02;6.90;84.40
53643;DHT22;39546;45.534;12.048;2023-12-20T23:14:05;6.70;84.80
53643;DHT22;39546;45.534;12.048;2023-12-20T23:20:07;6.70;85.00
53643;DHT22;39546;45.534;12.048;2023-12-20T23:26:10;6.80;84.90
53643;DHT22;39546;45.534;12.048;2023-12-20T23:32:15;6.80;84.40
53643;DHT22;39546;45.534;12.048;2023-12-20T23:38:19;6.90;84.50
53643;DHT22;39546;45.534;12.048;2023-12-20T23:44:20;7.00;84.20
53643;DHT22;39546;45.534;12.048;2023-12-20T23:50:22;7.00;84.00
53643;DHT22;39546;45.534;12.048;2023-12-20T23:56:24;6.90;84.00
